createdAt,value
2019-01-31T00:01:40.337Z,130.83
2019-01-31T00:04:42.633Z,132.90
2019-01-31T00:07:43.868Z,137.77
2019-01-31T00:10:36.113Z,134.27
2019-01-31T00:13:13.372Z,149.93
2019-01-31T00:16:08.934Z,147.40
2019-01-31T00:18:55.320Z,150.37
2019-01-31T00:21:53.960Z,158.00
2019-01-31T00:24:44.461Z,168.70
2019-01-31T00:27:47.985Z,172.33
2019-01-31T00:30:57.343Z,169.20
2019-01-31T00:34:09.828Z,85.07
2019-01-31T00:37:05.481Z,135.87
2019-01-31T00:40:23.793Z,96.17
2019-01-31T00:43:36.071Z,74.97
2019-01-31T00:47:12.719Z,62.90
2019-01-31T00:50:27.906Z,67.67
2019-01-31T00:53:39.184Z,61.10
2019-01-31T00:56:55.540Z,58.20
2019-01-31T00:59:52.376Z,55.77
2019-01-31T01:02:59.492Z,64.53
2019-01-31T01:06:01.358Z,61.17
2019-01-31T01:09:29.972Z,57.77
2019-01-31T01:12:45.265Z,56.73
2019-01-31T01:15:39.735Z,58.93
2019-01-31T01:18:32.601Z,59.40
2019-01-31T01:21:29.022Z,62.03
2019-01-31T01:24:25.901Z,55.00
2019-01-31T01:27:29.428Z,58.90
2019-01-31T01:30:29.373Z,58.70
2019-01-31T01:33:30.234Z,60.60
2019-01-31T01:36:19.856Z,57.63
2019-01-31T01:39:39.355Z,54.40
2019-01-31T01:42:40.300Z,61.67
2019-01-31T01:46:01.928Z,64.23
2019-01-31T01:48:48.648Z,62.73
2019-01-31T01:51:45.191Z,63.80
2019-01-31T01:54:43.035Z,56.07
2019-01-31T01:58:13.975Z,64.70
2019-01-31T02:01:33.579Z,65.93
2019-01-31T02:04:33.201Z,57.13
2019-01-31T02:07:34.734Z,61.33
2019-01-31T02:10:46.544Z,61.30
2019-01-31T02:13:59.430Z,66.80
2019-01-31T02:17:20.788Z,68.17
2019-01-31T02:20:47.740Z,65.30
2019-01-31T02:23:36.102Z,65.57
2019-01-31T02:26:56.310Z,68.23
2019-01-31T02:29:57.325Z,69.20
2019-01-31T02:32:44.555Z,64.30
2019-01-31T02:35:38.463Z,57.77
2019-01-31T02:39:17.746Z,64.23
2019-01-31T02:42:14.849Z,64.53
2019-01-31T02:45:13.113Z,65.73
2019-01-31T02:48:14.505Z,66.47
2019-01-31T02:51:36.514Z,67.83
2019-01-31T02:54:44.615Z,60.97
2019-01-31T02:57:52.830Z,60.93
2019-01-31T03:01:05.467Z,62.77
2019-01-31T03:04:12.852Z,58.67
2019-01-31T03:07:30.756Z,57.00
2019-01-31T03:10:43.797Z,58.80
2019-01-31T03:13:24.418Z,55.53
2019-01-31T03:16:12.795Z,61.10
2019-01-31T03:19:20.643Z,55.30
2019-01-31T03:22:45.237Z,60.57
2019-01-31T03:25:42.115Z,58.77
2019-01-31T03:28:48.494Z,56.57
2019-01-31T03:31:55.851Z,60.33
2019-01-31T03:34:44.314Z,63.73
2019-01-31T03:38:03.204Z,59.03
2019-01-31T03:41:11.596Z,60.17
2019-01-31T03:44:16.479Z,60.40
2019-01-31T03:47:43.553Z,62.03
2019-01-31T03:50:32.772Z,55.80
2019-01-31T03:53:43.023Z,56.70
2019-01-31T03:56:58.218Z,62.83
2019-01-31T04:00:01.693Z,62.07
2019-01-31T04:02:58.158Z,57.10
2019-01-31T04:05:58.254Z,59.57
2019-01-31T04:08:31.071Z,62.77
2019-01-31T04:11:02.356Z,58.07
2019-01-31T04:13:33.739Z,62.93
2019-01-31T04:16:05.191Z,57.83
2019-01-31T04:18:37.362Z,64.70
2019-01-31T04:21:08.708Z,62.03
2019-01-31T04:23:40.529Z,61.50
2019-01-31T04:26:13.739Z,66.50
2019-01-31T04:28:46.021Z,61.90
2019-01-31T04:31:17.351Z,64.53
2019-01-31T04:33:48.837Z,61.50
2019-01-31T04:36:20.282Z,62.60
2019-01-31T04:38:51.906Z,65.70
2019-01-31T04:41:23.341Z,66.83
2019-01-31T04:43:54.907Z,63.23
2019-01-31T04:46:26.147Z,68.13
2019-01-31T04:48:57.597Z,64.07
2019-01-31T04:51:28.983Z,64.67
2019-01-31T04:54:00.348Z,69.37
2019-01-31T04:56:31.837Z,64.20
2019-01-31T04:59:03.492Z,62.43
2019-01-31T05:01:35.376Z,66.17
2019-01-31T05:04:07.020Z,62.90
2019-01-31T05:06:38.638Z,70.63
2019-01-31T05:09:10.365Z,67.00
2019-01-31T05:11:41.989Z,70.20
2019-01-31T05:14:13.771Z,73.70
2019-01-31T05:16:45.757Z,66.23
2019-01-31T05:19:22.411Z,69.03
2019-01-31T05:21:53.892Z,70.77
2019-01-31T05:24:25.483Z,69.37
2019-01-31T05:26:57.051Z,67.63
2019-01-31T05:29:28.566Z,69.00
2019-01-31T05:31:59.829Z,72.53
2019-01-31T05:34:31.203Z,75.27
2019-01-31T05:37:02.564Z,70.77
2019-01-31T05:39:34.305Z,72.23
2019-01-31T05:42:05.890Z,74.50
2019-01-31T05:44:37.597Z,70.60
2019-01-31T05:47:09.009Z,84.57
2019-01-31T05:49:40.812Z,69.70
2019-01-31T05:52:12.549Z,67.90
2019-01-31T05:54:44.727Z,67.17
2019-01-31T05:57:15.941Z,71.23
2019-01-31T05:59:47.281Z,71.07
2019-01-31T06:02:18.713Z,68.47
2019-01-31T06:04:53.819Z,67.20
2019-01-31T06:07:29.856Z,73.23
2019-01-31T06:10:01.289Z,70.23
2019-01-31T06:12:33.184Z,73.60
2019-01-31T06:15:06.020Z,66.10
2019-01-31T06:17:37.777Z,70.00
2019-01-31T06:20:10.909Z,74.47
2019-01-31T06:22:42.877Z,71.70
2019-01-31T06:25:14.611Z,70.80
2019-01-31T06:27:51.419Z,67.40
2019-01-31T06:30:24.468Z,76.30
2019-01-31T06:32:56.397Z,70.27
2019-01-31T06:35:27.862Z,75.20
2019-01-31T06:37:59.255Z,81.27
2019-01-31T06:40:31.659Z,81.43
2019-01-31T06:43:03.274Z,74.27
2019-01-31T06:45:34.536Z,76.43
2019-01-31T06:48:06.059Z,81.03
2019-01-31T06:50:37.540Z,83.97
2019-01-31T06:53:09.026Z,84.10
2019-01-31T06:55:40.657Z,80.57
2019-01-31T06:58:13.190Z,74.23
2019-01-31T07:00:44.814Z,79.20
2019-01-31T07:03:16.048Z,74.53
2019-01-31T07:05:47.566Z,78.93
2019-01-31T07:08:19.193Z,72.97
2019-01-31T07:10:56.790Z,85.57
2019-01-31T07:13:28.188Z,75.87
2019-01-31T07:15:59.677Z,77.37
2019-01-31T07:18:31.318Z,76.27
2019-01-31T07:21:02.825Z,80.33
2019-01-31T07:23:34.297Z,83.30
2019-01-31T07:26:05.514Z,81.67
2019-01-31T07:28:42.724Z,80.03
2019-01-31T07:31:14.179Z,78.30
2019-01-31T07:33:45.971Z,82.63
2019-01-31T07:36:17.624Z,79.63
2019-01-31T07:38:49.062Z,78.73
2019-01-31T07:41:20.625Z,78.27
2019-01-31T07:43:51.968Z,82.73
2019-01-31T07:46:23.397Z,80.20
2019-01-31T07:48:54.780Z,87.80
2019-01-31T07:51:26.193Z,81.63
2019-01-31T07:53:57.693Z,86.23
2019-01-31T07:56:29.313Z,81.93
2019-01-31T07:59:01.145Z,84.77
2019-01-31T08:01:32.623Z,88.50
2019-01-31T08:04:04.312Z,82.47
2019-01-31T08:06:35.583Z,97.43
2019-01-31T08:09:09.910Z,101.40
2019-01-31T08:11:52.115Z,96.83
2019-01-31T08:14:14.513Z,90.80
2019-01-31T08:16:47.167Z,90.87
2019-01-31T08:19:18.974Z,91.63
2019-01-31T08:21:50.443Z,94.40
2019-01-31T08:24:22.151Z,91.80
2019-01-31T08:26:55.894Z,90.40
2019-01-31T08:29:27.761Z,97.10
2019-01-31T08:31:59.113Z,89.30
2019-01-31T08:34:30.486Z,88.23
2019-01-31T08:37:02.099Z,101.23
2019-01-31T08:39:33.596Z,92.57
2019-01-31T08:42:05.067Z,94.37
2019-01-31T08:44:36.765Z,93.90
2019-01-31T08:47:08.329Z,90.33
2019-01-31T08:49:40.023Z,92.00
2019-01-31T08:52:12.023Z,89.10
2019-01-31T08:54:43.817Z,81.70
2019-01-31T08:57:15.158Z,91.90
2019-01-31T08:59:46.666Z,98.73
2019-01-31T09:02:18.091Z,97.87
2019-01-31T09:04:49.344Z,92.23
2019-01-31T09:07:21.188Z,94.27
2019-01-31T09:09:52.742Z,93.47
2019-01-31T09:12:24.259Z,101.10
2019-01-31T09:14:56.202Z,90.40
2019-01-31T09:17:27.677Z,116.13
2019-01-31T09:19:58.888Z,77.97
2019-01-31T09:22:53.587Z,96.37
2019-01-31T09:26:23.420Z,96.73
2019-01-31T09:29:20.664Z,98.10
2019-01-31T09:32:14.213Z,78.00
2019-01-31T09:35:04.982Z,83.20
2019-01-31T09:38:17.097Z,106.67
2019-01-31T09:41:31.750Z,87.07
2019-01-31T09:44:55.958Z,99.77
2019-01-31T09:48:11.926Z,86.97
2019-01-31T09:51:05.915Z,87.50
2019-01-31T09:54:27.952Z,93.50
2019-01-31T09:57:36.214Z,91.60
2019-01-31T10:00:35.814Z,96.77
2019-01-31T10:03:52.583Z,92.17
2019-01-31T10:06:57.458Z,86.47
2019-01-31T10:10:12.399Z,89.70
2019-01-31T10:13:39.618Z,85.10
2019-01-31T10:16:38.302Z,97.83
2019-01-31T10:19:41.033Z,90.17
2019-01-31T10:23:02.594Z,85.90
2019-01-31T10:26:23.130Z,81.20
2019-01-31T10:29:34.999Z,88.73
2019-01-31T10:32:22.288Z,91.97
2019-01-31T10:35:28.209Z,82.83
2019-01-31T10:38:34.815Z,84.57
2019-01-31T10:41:29.802Z,89.20
2019-01-31T10:44:54.604Z,86.83
2019-01-31T10:48:13.752Z,81.33
2019-01-31T10:51:16.905Z,88.77
2019-01-31T10:54:13.209Z,84.77
2019-01-31T10:57:23.307Z,88.53
2019-01-31T11:00:27.459Z,90.50
2019-01-31T11:03:43.819Z,99.13
2019-01-31T11:07:12.881Z,83.93
2019-01-31T11:10:25.737Z,98.67
2019-01-31T11:13:50.469Z,91.80
2019-01-31T11:17:15.145Z,76.70
2019-01-31T11:20:23.632Z,93.80
2019-01-31T11:23:38.944Z,77.63
2019-01-31T11:26:48.200Z,78.20
2019-01-31T11:29:59.070Z,78.87
2019-01-31T11:33:12.333Z,83.17
2019-01-31T11:36:34.538Z,84.67
2019-01-31T11:39:25.630Z,78.27
2019-01-31T11:42:45.625Z,81.53
2019-01-31T11:45:40.301Z,73.67
2019-01-31T11:48:34.506Z,76.20
2019-01-31T11:51:56.212Z,74.93
2019-01-31T11:55:17.948Z,85.10
2019-01-31T11:58:18.840Z,81.63
2019-01-31T12:00:52.975Z,76.00
2019-01-31T12:03:24.202Z,76.73
2019-01-31T12:05:57.767Z,83.60
2019-01-31T12:08:29.434Z,75.87
2019-01-31T12:11:01.039Z,83.50
2019-01-31T12:13:32.432Z,82.23
2019-01-31T12:16:04.922Z,84.53
2019-01-31T12:18:36.453Z,80.07
2019-01-31T12:21:07.683Z,82.50
2019-01-31T12:23:39.225Z,86.50
2019-01-31T12:26:13.873Z,84.33
2019-01-31T12:28:44.505Z,85.20
2019-01-31T12:31:16.082Z,80.20
2019-01-31T12:33:47.401Z,76.97
2019-01-31T12:36:19.150Z,76.40
2019-01-31T12:38:50.783Z,80.73
2019-01-31T12:41:22.366Z,81.87
2019-01-31T12:43:53.722Z,79.93
2019-01-31T12:46:25.545Z,87.00
2019-01-31T12:48:56.862Z,82.90
2019-01-31T12:51:28.349Z,86.47
2019-01-31T12:54:00.744Z,73.70
2019-01-31T12:56:32.103Z,68.20
2019-01-31T12:59:05.477Z,77.93
2019-01-31T13:01:37.195Z,79.37
2019-01-31T13:04:09.158Z,71.77
2019-01-31T13:06:41.248Z,75.90
2019-01-31T13:09:14.197Z,70.17
2019-01-31T13:11:45.876Z,71.43
2019-01-31T13:14:17.441Z,67.03
2019-01-31T13:16:48.922Z,72.33
2019-01-31T13:19:20.479Z,66.37
2019-01-31T13:21:52.411Z,68.37
2019-01-31T13:24:24.069Z,63.90
2019-01-31T13:26:55.461Z,70.77
2019-01-31T13:29:27.292Z,68.10
2019-01-31T13:31:58.898Z,61.23
2019-01-31T13:34:30.272Z,62.53
2019-01-31T13:37:01.793Z,62.93
2019-01-31T13:39:33.142Z,64.37
2019-01-31T13:42:04.873Z,65.83
2019-01-31T13:44:36.599Z,69.97
2019-01-31T13:47:08.096Z,65.33
2019-01-31T13:49:39.766Z,61.83
2019-01-31T13:52:12.618Z,62.43
2019-01-31T13:54:44.546Z,69.17
2019-01-31T13:57:16.146Z,61.67
2019-01-31T13:59:47.555Z,64.63
2019-01-31T14:02:22.457Z,64.73
2019-01-31T14:04:53.730Z,58.17
2019-01-31T14:07:27.547Z,63.20
2019-01-31T14:09:58.161Z,59.07
2019-01-31T14:12:29.713Z,64.80
2019-01-31T14:15:01.152Z,63.27
2019-01-31T14:17:37.997Z,59.43
2019-01-31T14:20:12.489Z,61.00
2019-01-31T14:22:44.401Z,66.30
2019-01-31T14:25:15.898Z,61.33
2019-01-31T14:27:50.042Z,75.30
2019-01-31T14:30:50.081Z,100.80
2019-01-31T14:33:25.913Z,85.53
2019-01-31T14:35:58.640Z,78.73
2019-01-31T14:38:31.439Z,71.57
2019-01-31T14:41:05.752Z,65.50
2019-01-31T14:43:37.066Z,67.47
2019-01-31T14:46:10.284Z,68.67
2019-01-31T14:48:42.600Z,66.13
2019-01-31T14:51:14.236Z,67.17
2019-01-31T14:53:45.796Z,67.70
2019-01-31T14:56:17.426Z,66.90
2019-01-31T14:58:49.161Z,62.10
2019-01-31T15:01:21.952Z,72.40
2019-01-31T15:03:53.278Z,61.60
2019-01-31T15:06:24.904Z,66.30
2019-01-31T15:08:59.479Z,68.67
2019-01-31T15:11:31.048Z,70.43
2019-01-31T15:14:02.491Z,71.80
2019-01-31T15:16:34.362Z,74.10
2019-01-31T15:19:06.406Z,76.70
2019-01-31T15:21:38.457Z,72.07
2019-01-31T15:24:10.352Z,75.53
2019-01-31T15:26:42.508Z,79.70
2019-01-31T15:29:19.115Z,71.90
2019-01-31T15:31:50.848Z,69.40
2019-01-31T15:34:22.409Z,72.90
2019-01-31T15:36:53.767Z,73.70
2019-01-31T15:39:25.194Z,79.77
2019-01-31T15:41:56.717Z,77.53
2019-01-31T15:44:30.513Z,75.97
2019-01-31T15:47:02.085Z,73.70
2019-01-31T15:49:33.708Z,69.43
2019-01-31T15:52:06.247Z,71.87
2019-01-31T15:54:37.797Z,81.53
2019-01-31T15:57:16.443Z,80.70
2019-01-31T15:59:42.888Z,78.03
2019-01-31T16:02:14.328Z,65.17
2019-01-31T16:04:46.000Z,67.87
2019-01-31T16:07:17.850Z,63.97
2019-01-31T16:09:49.248Z,61.97
2019-01-31T16:12:20.650Z,62.47
2019-01-31T16:14:54.959Z,61.47
2019-01-31T16:17:26.767Z,63.47
2019-01-31T16:19:58.152Z,61.03
2019-01-31T16:22:29.524Z,64.10
2019-01-31T16:25:01.575Z,61.57
2019-01-31T16:27:33.272Z,65.10
2019-01-31T16:30:06.915Z,63.93
2019-01-31T16:32:38.584Z,75.53
2019-01-31T16:35:12.203Z,68.23
2019-01-31T16:37:53.903Z,65.37
2019-01-31T16:40:26.090Z,64.80
2019-01-31T16:42:57.487Z,60.70
2019-01-31T16:45:28.870Z,64.60
2019-01-31T16:48:07.589Z,65.97
2019-01-31T16:50:39.512Z,71.60
2019-01-31T16:53:11.982Z,67.40
2019-01-31T16:55:44.026Z,60.90
2019-01-31T16:58:16.228Z,68.30
2019-01-31T17:00:47.579Z,57.30
2019-01-31T17:03:18.944Z,60.53
2019-01-31T17:05:50.584Z,58.83
2019-01-31T17:08:27.255Z,53.90
2019-01-31T17:10:58.924Z,60.73
2019-01-31T17:13:31.463Z,60.63
2019-01-31T17:16:03.012Z,67.70
2019-01-31T17:18:34.875Z,66.37
2019-01-31T17:21:06.532Z,66.10
2019-01-31T17:23:37.892Z,72.30
2019-01-31T17:26:09.632Z,76.93
2019-01-31T17:28:41.881Z,72.97
2019-01-31T17:31:13.852Z,73.33
2019-01-31T17:33:46.047Z,68.43
2019-01-31T17:36:17.609Z,70.00
2019-01-31T17:38:49.072Z,64.70
2019-01-31T17:41:20.718Z,69.73
2019-01-31T17:43:51.983Z,59.73
2019-01-31T17:46:24.370Z,57.40
2019-01-31T17:48:56.000Z,58.43
2019-01-31T17:51:27.800Z,63.83
2019-01-31T17:54:01.552Z,60.33
2019-01-31T17:56:32.393Z,62.70
2019-01-31T17:59:03.770Z,52.43
2019-01-31T18:01:35.019Z,53.20
2019-01-31T18:04:06.756Z,53.60
2019-01-31T18:06:38.132Z,51.00
2019-01-31T18:09:11.339Z,49.80
2019-01-31T18:11:43.333Z,50.53
2019-01-31T18:14:14.650Z,49.77
2019-01-31T18:16:46.577Z,56.03
2019-01-31T18:19:18.250Z,56.37
2019-01-31T18:21:49.985Z,54.97
2019-01-31T18:24:21.425Z,55.87
2019-01-31T18:26:53.034Z,56.10
2019-01-31T18:29:25.652Z,57.73
2019-01-31T18:31:57.021Z,55.30
2019-01-31T18:34:28.279Z,65.03
2019-01-31T18:36:59.769Z,62.93
2019-01-31T18:39:31.231Z,63.57
2019-01-31T18:42:02.917Z,60.77
2019-01-31T18:44:34.358Z,56.40
2019-01-31T18:47:05.973Z,50.93
2019-01-31T18:49:37.140Z,52.17
2019-01-31T18:52:08.621Z,49.80
2019-01-31T18:54:40.042Z,52.80
2019-01-31T18:57:12.876Z,53.70
2019-01-31T18:59:44.782Z,51.47
2019-01-31T19:02:16.262Z,53.37
2019-01-31T19:04:47.872Z,53.50
2019-01-31T19:07:19.850Z,54.60
2019-01-31T19:09:51.239Z,54.80
2019-01-31T19:12:23.083Z,57.70
2019-01-31T19:14:56.590Z,61.40
2019-01-31T19:17:33.533Z,54.67
2019-01-31T19:20:07.553Z,62.00
2019-01-31T19:22:39.291Z,53.10
2019-01-31T19:25:11.164Z,52.33
2019-01-31T19:27:44.390Z,48.33
2019-01-31T19:30:26.019Z,49.33
2019-01-31T19:32:57.410Z,52.50
2019-01-31T19:35:30.308Z,50.53
2019-01-31T19:38:02.671Z,53.73
2019-01-31T19:40:36.357Z,47.17
2019-01-31T19:43:07.798Z,50.90
2019-01-31T19:45:44.685Z,58.27
2019-01-31T19:48:16.613Z,52.93
2019-01-31T19:50:48.010Z,51.27
2019-01-31T19:53:20.004Z,48.80
2019-01-31T19:55:51.710Z,47.70
2019-01-31T19:58:23.233Z,46.57
2019-01-31T20:00:54.704Z,41.43
2019-01-31T20:03:26.564Z,45.00
2019-01-31T20:05:58.024Z,51.03
2019-01-31T20:08:30.725Z,42.87
2019-01-31T20:11:02.454Z,41.53
2019-01-31T20:13:34.008Z,42.03
2019-01-31T20:16:05.727Z,50.67
2019-01-31T20:18:37.444Z,58.33
2019-01-31T20:21:09.107Z,62.30
2019-01-31T20:23:40.683Z,59.40
2019-01-31T20:26:12.814Z,60.50
2019-01-31T20:28:44.873Z,59.67
2019-01-31T20:31:16.388Z,60.20
2019-01-31T20:33:48.343Z,56.77
2019-01-31T20:36:20.069Z,64.97
2019-01-31T20:38:52.012Z,51.30
2019-01-31T20:41:23.662Z,50.97
2019-01-31T20:43:55.403Z,57.50
2019-01-31T20:46:27.155Z,53.77
2019-01-31T20:48:59.240Z,54.27
2019-01-31T20:51:32.223Z,52.57
2019-01-31T20:54:04.361Z,53.53
2019-01-31T20:56:36.048Z,52.77
2019-01-31T20:59:07.737Z,61.13
2019-01-31T21:01:39.517Z,55.43
2019-01-31T21:04:11.545Z,58.53
2019-01-31T21:06:43.540Z,60.47
2019-01-31T21:09:15.161Z,59.03
2019-01-31T21:11:47.257Z,65.07
2019-01-31T21:14:19.071Z,59.17
2019-01-31T21:16:52.068Z,65.07
2019-01-31T21:19:24.181Z,86.33
2019-01-31T21:21:55.718Z,75.13
2019-01-31T21:24:27.453Z,60.63
2019-01-31T21:26:58.945Z,64.70
2019-01-31T21:29:30.618Z,83.13
2019-01-31T21:32:01.984Z,71.63
2019-01-31T21:34:33.572Z,71.47
2019-01-31T21:37:05.353Z,60.63
2019-01-31T21:39:36.902Z,58.87
2019-01-31T21:42:08.682Z,56.97
2019-01-31T21:44:40.579Z,65.03
2019-01-31T21:47:12.890Z,61.00
2019-01-31T21:49:45.034Z,68.07
2019-01-31T21:52:16.424Z,59.67
2019-01-31T21:54:47.800Z,57.90
2019-01-31T21:57:19.458Z,64.73
2019-01-31T21:59:52.087Z,65.73
2019-01-31T22:02:23.809Z,65.37
2019-01-31T22:04:55.191Z,57.97
2019-01-31T22:07:27.024Z,56.23
2019-01-31T22:09:58.355Z,69.90
2019-01-31T22:12:30.016Z,57.70
2019-01-31T22:15:01.570Z,69.70
2019-01-31T22:17:33.041Z,74.20
2019-01-31T22:20:05.001Z,74.83
2019-01-31T22:22:36.287Z,74.83
2019-01-31T22:25:09.487Z,82.07
2019-01-31T22:27:41.151Z,68.43
2019-01-31T22:30:15.958Z,75.97
2019-01-31T22:32:47.380Z,69.03
2019-01-31T22:35:19.125Z,71.57
2019-01-31T22:37:50.611Z,77.30
2019-01-31T22:40:22.433Z,84.10
2019-01-31T22:42:53.839Z,77.67
2019-01-31T22:45:25.443Z,71.47
2019-01-31T22:47:57.256Z,78.77
2019-01-31T22:50:28.837Z,69.27
2019-01-31T22:53:00.249Z,75.03
2019-01-31T22:55:31.645Z,73.00
2019-01-31T22:58:03.331Z,67.17
2019-01-31T23:01:19.943Z,68.37
2019-01-31T23:03:51.688Z,69.50
2019-01-31T23:06:23.596Z,67.73
2019-01-31T23:08:55.342Z,71.43
2019-01-31T23:11:26.760Z,62.60
2019-01-31T23:13:58.274Z,74.93
2019-01-31T23:16:29.758Z,69.50
2019-01-31T23:19:01.170Z,69.57
2019-01-31T23:21:32.585Z,66.17
2019-01-31T23:24:05.061Z,63.37
2019-01-31T23:26:36.800Z,69.37
2019-01-31T23:29:08.401Z,65.73
2019-01-31T23:31:39.875Z,73.97
2019-01-31T23:34:11.819Z,78.97
2019-01-31T23:36:43.722Z,75.20
2019-01-31T23:39:15.505Z,77.10
2019-01-31T23:41:47.232Z,80.60
2019-01-31T23:44:18.946Z,85.47
2019-01-31T23:46:50.417Z,81.67
2019-01-31T23:49:22.058Z,81.23
2019-01-31T23:51:53.412Z,84.27
2019-01-31T23:54:24.768Z,82.70
2019-01-31T23:56:56.281Z,83.90
2019-01-31T23:59:27.692Z,79.93
